Time,TemperatureF,DewpointF,PressureIn,WindDirection,WindDirectionDegrees,WindSpeedMPH,WindSpeedGustMPH,Humidity,HourlyPrecipIn,Conditions,Clouds,dailyrainin,SolarRadiationWatts/m^2,SoftwareType,DateUTC
2013-04-04 00:07:00,47.0,45.0,30.09,NNW,346,5.0,9.0,92,0.00,,,0.00,0,weatherlink.com 1.10,2013-04-04 05:07:00,
2013-04-04 00:37:00,46.8,45.0,30.09,NNW,338,7.0,8.0,92,0.00,,,0.00,0,weatherlink.com 1.10,2013-04-04 05:37:00,
2013-04-04 00:53:00,46.6,44.0,30.09,North,354,7.0,11.0,92,0.00,,,0.00,0,weatherlink.com 1.10,2013-04-04 05:53:00,
2013-04-04 01:08:00,46.6,44.0,30.08,NNW,336,8.0,10.0,91,0.00,,,0.00,0,weatherlink.com 1.10,2013-04-04 06:08:00,
2013-04-04 01:23:00,46.4,44.0,30.08,NNW,327,7.0,10.0,91,0.00,,,0.00,0,weatherlink.com 1.10,2013-04-04 06:23:00,
2013-04-04 01:38:00,46.4,44.0,30.08,NNW,336,6.0,11.0,90,0.00,,,0.00,0,weatherlink.com 1.10,2013-04-04 06:38:00,
2013-04-04 01:53:00,46.2,44.0,30.08,NW,318,5.0,9.0,91,0.00,,,0.00,0,weatherlink.com 1.10,2013-04-04 06:53:00,
2013-04-04 02:08:00,46.2,44.0,30.08,NNW,332,9.0,11.0,90,0.00,,,0.00,0,weatherlink.com 1.10,2013-04-04 07:08:00,
2013-04-04 02:23:00,46.3,44.0,30.08,NW,324,5.0,7.0,90,0.00,,,0.00,0,weatherlink.com 1.10,2013-04-04 07:23:00,
2013-04-04 02:38:00,46.0,43.0,30.07,NNW,332,8.0,11.0,90,0.00,,,0.00,0,weatherlink.com 1.10,2013-04-04 07:38:00,
2013-04-04 02:53:00,45.9,43.0,30.07,NW,324,7.0,8.0,89,0.00,,,0.00,0,weatherlink.com 1.10,2013-04-04 07:53:00,
2013-04-04 03:08:00,46.0,43.0,30.07,NW,307,6.0,7.0,90,0.00,,,0.00,0,weatherlink.com 1.10,2013-04-04 08:08:00,
2013-04-04 03:23:00,46.0,43.0,30.07,WNW,290,6.0,9.0,90,0.00,,,0.00,0,weatherlink.com 1.10,2013-04-04 08:23:00,
2013-04-04 03:38:00,45.8,43.0,30.06,NW,305,5.0,9.0,88,0.00,,,0.00,0,weatherlink.com 1.10,2013-04-04 08:38:00,
2013-04-04 03:53:00,45.6,43.0,30.07,NW,314,9.0,12.0,91,0.00,,,0.00,0,weatherlink.com 1.10,2013-04-04 08:53:00,
2013-04-04 04:08:00,45.3,43.0,30.06,WNW,299,6.0,10.0,92,0.00,,,0.00,0,weatherlink.com 1.10,2013-04-04 09:08:00,
2013-04-04 04:23:00,45.1,43.0,30.06,NW,311,9.0,13.0,93,0.00,,,0.00,0,weatherlink.com 1.10,2013-04-04 09:23:00,
2013-04-04 04:38:00,45.1,43.0,30.06,NW,317,10.0,14.0,92,0.00,,,0.00,0,weatherlink.com 1.10,2013-04-04 09:38:00,
2013-04-04 04:53:00,44.8,43.0,30.06,WNW,303,8.0,13.0,93,0.00,,,0.00,0,weatherlink.com 1.10,2013-04-04 09:53:00,
2013-04-04 05:08:00,44.6,43.0,30.06,NW,306,10.0,13.0,94,0.00,,,0.00,0,weatherlink.com 1.10,2013-04-04 10:08:00,
2013-04-04 05:23:00,44.4,43.0,30.06,NW,323,9.0,14.0,93,0.00,,,0.00,0,weatherlink.com 1.10,2013-04-04 10:23:00,
2013-04-04 05:38:00,44.3,42.0,30.06,NW,322,10.0,13.0,93,0.00,,,0.00,0,weatherlink.com 1.10,2013-04-04 10:38:00,
2013-04-04 05:53:00,44.2,42.0,30.07,NNW,330,8.0,13.0,92,0.00,,,0.00,0,weatherlink.com 1.10,2013-04-04 10:53:00,
2013-04-04 06:08:00,44.3,42.0,30.07,NW,311,6.0,11.0,91,0.00,,,0.00,0,weatherlink.com 1.10,2013-04-04 11:08:00,
2013-04-04 06:23:00,44.5,42.0,30.07,NNW,334,8.0,11.0,91,0.00,,,0.00,0,weatherlink.com 1.10,2013-04-04 11:23:00,
2013-04-04 06:38:00,44.5,42.0,30.07,NW,316,7.0,12.0,91,0.00,,,0.00,0,weatherlink.com 1.10,2013-04-04 11:38:00,
2013-04-04 06:53:00,44.3,42.0,30.08,NW,312,9.0,11.0,91,0.00,,,0.00,0,weatherlink.com 1.10,2013-04-04 11:53:00,
2013-04-04 07:08:00,44.1,41.0,30.09,NNW,347,5.0,12.0,90,0.00,,,0.00,0,weatherlink.com 1.10,2013-04-04 12:08:00,
2013-04-04 07:23:00,44.0,42.0,30.09,NW,322,8.0,12.0,91,0.00,,,0.00,0,weatherlink.com 1.10,2013-04-04 12:23:00,
2013-04-04 07:38:00,43.9,42.0,30.10,NW,315,9.0,11.0,92,0.00,,,0.00,0,weatherlink.com 1.10,2013-04-04 12:38:00,
2013-04-04 07:53:00,44.0,42.0,30.10,WNW,303,5.0,9.0,92,0.00,,,0.00,5,weatherlink.com 1.10,2013-04-04 12:53:00,
2013-04-04 08:08:00,44.1,42.0,30.10,NW,320,7.0,9.0,93,0.00,,,0.00,9,weatherlink.com 1.10,2013-04-04 13:08:00,
2013-04-04 08:23:00,44.3,42.0,30.10,NW,307,8.0,12.0,92,0.00,,,0.00,30,weatherlink.com 1.10,2013-04-04 13:23:00,
2013-04-04 08:38:00,44.7,42.0,30.10,NW,325,7.0,9.0,91,0.00,,,0.00,33,weatherlink.com 1.10,2013-04-04 13:38:00,
2013-04-04 08:53:00,44.8,42.0,30.11,NNW,330,7.0,9.0,91,0.00,,,0.00,25,weatherlink.com 1.10,2013-04-04 13:53:00,
2013-04-04 09:08:00,45.1,43.0,30.11,NW,309,6.0,10.0,91,0.00,,,0.00,33,weatherlink.com 1.10,2013-04-04 14:08:00,
2013-04-04 09:23:00,45.2,42.0,30.12,NW,307,12.0,16.0,89,0.00,,,0.00,90,weatherlink.com 1.10,2013-04-04 14:23:00,
2013-04-04 10:08:00,45.0,42.0,30.14,West,278,12.0,16.0,89,0.00,,,0.00,62,weatherlink.com 1.10,2013-04-04 15:08:00,
2013-04-04 10:23:00,45.4,42.0,30.14,West,279,7.0,17.0,88,0.00,,,0.00,74,weatherlink.com 1.10,2013-04-04 15:23:00,
2013-04-04 10:54:00,45.7,42.0,30.15,West,278,12.0,18.0,85,0.00,,,0.00,76,weatherlink.com 1.10,2013-04-04 15:54:00,
2013-04-04 11:24:00,46.0,42.0,30.16,WNW,301,7.0,15.0,85,0.01,,,0.01,93,weatherlink.com 1.10,2013-04-04 16:24:00,
2013-04-04 11:54:00,46.3,41.0,30.16,NW,312,10.0,18.0,83,0.01,,,0.01,90,weatherlink.com 1.10,2013-04-04 16:54:00,
2013-04-04 12:09:00,46.5,42.0,30.17,NW,312,9.0,15.0,84,0.00,,,0.01,79,weatherlink.com 1.10,2013-04-04 17:09:00,
2013-04-04 12:24:00,46.8,42.0,30.16,WNW,285,7.0,14.0,83,0.00,,,0.01,355,weatherlink.com 1.10,2013-04-04 17:24:00,
2013-04-04 12:39:00,46.9,41.0,30.16,WNW,299,10.0,19.0,81,0.00,,,0.01,142,weatherlink.com 1.10,2013-04-04 17:39:00,
2013-04-04 13:09:00,47.0,42.0,30.15,WNW,289,13.0,17.0,83,0.00,,,0.01,165,weatherlink.com 1.10,2013-04-04 18:09:00,
2013-04-04 13:24:00,47.0,41.0,30.14,WNW,287,8.0,17.0,81,0.00,,,0.01,244,weatherlink.com 1.10,2013-04-04 18:24:00,
2013-04-04 13:39:00,47.8,42.0,30.14,WNW,288,13.0,17.0,81,0.00,,,0.01,151,weatherlink.com 1.10,2013-04-04 18:39:00,
2013-04-04 13:54:00,47.3,42.0,30.13,West,269,12.0,15.0,81,0.00,,,0.01,114,weatherlink.com 1.10,2013-04-04 18:54:00,
2013-04-04 14:24:00,49.1,43.0,30.12,NW,305,7.0,16.0,79,0.00,,,0.01,304,weatherlink.com 1.10,2013-04-04 19:24:00,
2013-04-04 14:39:00,49.0,43.0,30.12,WNW,300,5.0,16.0,79,0.00,,,0.01,225,weatherlink.com 1.10,2013-04-04 19:39:00,
2013-04-04 15:01:00,49.4,43.0,30.12,NW,305,12.0,17.0,78,0.00,,,0.01,102,weatherlink.com 1.10,2013-04-04 20:01:00,
2013-04-04 15:10:00,49.2,42.0,30.11,West,278,13.0,15.0,77,0.00,,,0.01,148,weatherlink.com 1.10,2013-04-04 20:10:00,
2013-04-04 15:24:00,49.0,42.0,30.10,WNW,285,10.0,14.0,78,0.00,,,0.01,137,weatherlink.com 1.10,2013-04-04 20:24:00,
2013-04-04 15:39:00,49.6,43.0,30.10,WNW,291,10.0,16.0,77,0.00,,,0.01,214,weatherlink.com 1.10,2013-04-04 20:39:00,
2013-04-04 15:54:00,49.9,42.0,30.10,WNW,295,12.0,16.0,75,0.00,,,0.01,204,weatherlink.com 1.10,2013-04-04 20:54:00,
2013-04-04 16:09:00,50.5,43.0,30.09,NW,314,11.0,17.0,74,0.00,,,0.01,302,weatherlink.com 1.10,2013-04-04 21:09:00,
2013-04-04 16:24:00,50.5,43.0,30.09,WNW,299,17.0,20.0,74,0.00,,,0.01,114,weatherlink.com 1.10,2013-04-04 21:24:00,
2013-04-04 16:39:00,50.6,43.0,30.09,West,277,8.0,15.0,76,0.00,,,0.01,193,weatherlink.com 1.10,2013-04-04 21:39:00,
2013-04-04 16:54:00,51.1,43.0,30.09,WNW,293,14.0,17.0,73,0.00,,,0.01,162,weatherlink.com 1.10,2013-04-04 21:54:00,
2013-04-04 17:09:00,50.4,43.0,30.09,WNW,299,11.0,15.0,76,0.00,,,0.01,32,weatherlink.com 1.10,2013-04-04 22:09:00,
2013-04-04 17:24:00,50.5,43.0,30.09,WNW,283,13.0,13.0,76,0.00,,,0.01,123,weatherlink.com 1.10,2013-04-04 22:24:00,
2013-04-04 17:39:00,50.6,43.0,30.09,WNW,286,11.0,17.0,74,0.00,,,0.01,98,weatherlink.com 1.10,2013-04-04 22:39:00,
2013-04-04 17:54:00,50.9,43.0,30.09,NW,314,10.0,17.0,73,0.00,,,0.01,90,weatherlink.com 1.10,2013-04-04 22:54:00,
2013-04-04 18:09:00,50.9,43.0,30.09,WNW,295,10.0,12.0,75,0.00,,,0.01,53,weatherlink.com 1.10,2013-04-04 23:09:00,
2013-04-04 18:24:00,50.6,43.0,30.10,WNW,295,8.0,14.0,75,0.00,,,0.01,54,weatherlink.com 1.10,2013-04-04 23:24:00,
2013-04-04 18:39:00,50.7,43.0,30.10,WNW,289,12.0,14.0,75,0.00,,,0.01,35,weatherlink.com 1.10,2013-04-04 23:39:00,
2013-04-04 18:54:00,50.7,43.0,30.10,WNW,303,6.0,13.0,74,0.00,,,0.01,32,weatherlink.com 1.10,2013-04-04 23:54:00,
2013-04-04 19:09:00,50.7,43.0,30.10,NW,312,11.0,14.0,74,0.00,,,0.01,18,weatherlink.com 1.10,2013-04-05 00:09:00,
2013-04-04 19:24:00,50.6,43.0,30.10,WNW,293,9.0,11.0,75,0.00,,,0.01,12,weatherlink.com 1.10,2013-04-05 00:24:00,
2013-04-04 19:39:00,50.5,43.0,30.10,NW,318,8.0,10.0,76,0.00,,,0.01,0,weatherlink.com 1.10,2013-04-05 00:39:00,
2013-04-04 19:54:00,50.4,43.0,30.10,WNW,301,3.0,7.0,77,0.00,,,0.01,0,weatherlink.com 1.10,2013-04-05 00:54:00,
2013-04-04 20:09:00,50.3,44.0,30.11,WNW,287,6.0,7.0,78,0.00,,,0.01,0,weatherlink.com 1.10,2013-04-05 01:09:00,
2013-04-04 20:24:00,50.2,44.0,30.11,WNW,301,5.0,8.0,79,0.00,,,0.01,0,weatherlink.com 1.10,2013-04-05 01:24:00,
2013-04-04 20:39:00,50.1,44.0,30.12,WNW,303,4.0,6.0,79,0.00,,,0.01,0,weatherlink.com 1.10,2013-04-05 01:39:00,
2013-04-04 20:54:00,50.1,44.0,30.12,WNW,297,4.0,5.0,79,0.00,,,0.01,0,weatherlink.com 1.10,2013-04-05 01:54:00,
2013-04-04 21:09:00,49.9,44.0,30.12,WNW,297,4.0,5.0,80,0.00,,,0.01,0,weatherlink.com 1.10,2013-04-05 02:09:00,
2013-04-04 21:24:00,50.0,44.0,30.12,WNW,301,3.0,7.0,79,0.00,,,0.01,0,weatherlink.com 1.10,2013-04-05 02:24:00,
2013-04-04 21:39:00,49.9,44.0,30.13,WNW,293,2.0,4.0,80,0.00,,,0.01,0,weatherlink.com 1.10,2013-04-05 02:39:00,
2013-04-04 21:54:00,49.8,44.0,30.14,WNW,294,2.0,3.0,81,0.00,,,0.01,0,weatherlink.com 1.10,2013-04-05 02:54:00,
2013-04-04 22:09:00,49.8,44.0,30.14,WNW,289,4.0,5.0,81,0.00,,,0.01,0,weatherlink.com 1.10,2013-04-05 03:09:00,
2013-04-04 22:24:00,49.9,44.0,30.15,NW,305,5.0,6.0,81,0.00,,,0.01,0,weatherlink.com 1.10,2013-04-05 03:24:00,
2013-04-04 22:39:00,50.2,44.0,30.15,West,276,5.0,8.0,79,0.00,,,0.01,0,weatherlink.com 1.10,2013-04-05 03:39:00,
2013-04-04 22:54:00,50.5,44.0,30.16,WNW,288,6.0,9.0,78,0.00,,,0.01,0,weatherlink.com 1.10,2013-04-05 03:54:00,
2013-04-04 23:09:00,50.4,44.0,30.16,WNW,284,6.0,8.0,78,0.00,,,0.01,0,weatherlink.com 1.10,2013-04-05 04:09:00,
2013-04-04 23:24:00,50.4,44.0,30.17,WNW,290,5.0,8.0,78,0.00,,,0.01,0,weatherlink.com 1.10,2013-04-05 04:24:00,
2013-04-04 23:39:00,50.4,44.0,30.17,WNW,284,5.0,9.0,78,0.00,,,0.01,0,weatherlink.com 1.10,2013-04-05 04:39:00,
2013-04-04 23:54:00,50.3,44.0,30.16,WNW,293,4.0,7.0,78,0.00,,,0.01,0,weatherlink.com 1.10,2013-04-05 04:54:00,